sensor_id;sensor_type;location;lat;lon;timestamp;pressure;altitude;pressure_sealevel;temperature;humidity
51687;BME280;37774;52.192;4.584;2023-07-24T00:00:26;100133.84;;;17.70;100.00
51687;BME280;37774;52.192;4.584;2023-07-24T00:03:11;100125.72;;;17.75;100.00
51687;BME280;37774;52.192;4.584;2023-07-24T00:05:57;100086.31;;;17.57;100.00
51687;BME280;37774;52.192;4.584;2023-07-24T00:08:45;100097.31;;;17.46;100.00
51687;BME280;37774;52.192;4.584;2023-07-24T00:11:30;100058.56;;;17.15;100.00
51687;BME280;37774;52.192;4.584;2023-07-24T00:14:16;100172.19;;;17.74;100.00
51687;BME280;37774;52.192;4.584;2023-07-24T00:17:02;100175.16;;;17.66;100.00
51687;BME280;37774;52.192;4.584;2023-07-24T00:19:48;100177.16;;;17.61;100.00
51687;BME280;37774;52.192;4.584;2023-07-24T00:22:33;100195.28;;;17.48;100.00
51687;BME280;37774;52.192;4.584;2023-07-24T00:25:20;100207.41;;;17.51;100.00
51687;BME280;37774;52.192;4.584;2023-07-24T00:28:06;100206.66;;;17.49;100.00
51687;BME280;37774;52.192;4.584;2023-07-24T00:30:51;100219.19;;;17.61;100.00
51687;BME280;37774;52.192;4.584;2023-07-24T00:33:36;100195.78;;;17.57;100.00
51687;BME280;37774;52.192;4.584;2023-07-24T00:36:22;100142.34;;;17.19;100.00
51687;BME280;37774;52.192;4.584;2023-07-24T00:39:07;100191.38;;;17.38;100.00
51687;BME280;37774;52.192;4.584;2023-07-24T00:41:54;100207.13;;;17.38;100.00
51687;BME280;37774;52.192;4.584;2023-07-24T00:44:40;100190.75;;;17.14;100.00
51687;BME280;37774;52.192;4.584;2023-07-24T00:47:26;100219.75;;;17.30;100.00
51687;BME280;37774;52.192;4.584;2023-07-24T00:50:12;100236.03;;;17.19;100.00
51687;BME280;37774;52.192;4.584;2023-07-24T00:52:58;100233.81;;;17.10;100.00
51687;BME280;37774;52.192;4.584;2023-07-24T00:55:44;100216.34;;;17.08;100.00
51687;BME280;37774;52.192;4.584;2023-07-24T00:58:31;100190.94;;;17.09;100.00
51687;BME280;37774;52.192;4.584;2023-07-24T01:01:18;100157.81;;;17.06;100.00
51687;BME280;37774;52.192;4.584;2023-07-24T01:04:04;100143.78;;;17.07;100.00
51687;BME280;37774;52.192;4.584;2023-07-24T01:06:50;99957.41;;;15.93;100.00
51687;BME280;37774;52.192;4.584;2023-07-24T01:09:36;100073.00;;;16.85;100.00
51687;BME280;37774;52.192;4.584;2023-07-24T01:12:26;100090.34;;;17.08;100.00
51687;BME280;37774;52.192;4.584;2023-07-24T01:15:20;100047.97;;;16.78;100.00
51687;BME280;37774;52.192;4.584;2023-07-24T01:18:09;100097.59;;;17.03;100.00
51687;BME280;37774;52.192;4.584;2023-07-24T01:20:56;100063.78;;;16.76;100.00
51687;BME280;37774;52.192;4.584;2023-07-24T01:23:48;100083.22;;;16.91;100.00
51687;BME280;37774;52.192;4.584;2023-07-24T01:26:41;100090.66;;;17.02;100.00
51687;BME280;37774;52.192;4.584;2023-07-24T01:29:27;100079.91;;;17.07;100.00
51687;BME280;37774;52.192;4.584;2023-07-24T01:32:12;100068.88;;;17.00;100.00
51687;BME280;37774;52.192;4.584;2023-07-24T01:34:58;100038.41;;;16.77;100.00
51687;BME280;37774;52.192;4.584;2023-07-24T01:37:44;100073.38;;;16.97;100.00
51687;BME280;37774;52.192;4.584;2023-07-24T01:40:31;100061.75;;;16.83;100.00
51687;BME280;37774;52.192;4.584;2023-07-24T01:43:19;100074.25;;;16.97;100.00
51687;BME280;37774;52.192;4.584;2023-07-24T01:46:04;100072.41;;;16.99;100.00
51687;BME280;37774;52.192;4.584;2023-07-24T01:48:49;100060.75;;;17.05;100.00
51687;BME280;37774;52.192;4.584;2023-07-24T01:51:36;100054.38;;;17.11;100.00
51687;BME280;37774;52.192;4.584;2023-07-24T01:54:21;100028.56;;;17.01;100.00
51687;BME280;37774;52.192;4.584;2023-07-24T01:57:06;99999.97;;;16.76;100.00
51687;BME280;37774;52.192;4.584;2023-07-24T01:59:53;100034.66;;;17.02;100.00
51687;BME280;37774;52.192;4.584;2023-07-24T02:02:39;100023.97;;;17.06;100.00
51687;BME280;37774;52.192;4.584;2023-07-24T02:05:26;100003.25;;;17.00;100.00
51687;BME280;37774;52.192;4.584;2023-07-24T02:08:11;99993.59;;;17.01;100.00
51687;BME280;37774;52.192;4.584;2023-07-24T02:10:56;99981.19;;;17.04;100.00
51687;BME280;37774;52.192;4.584;2023-07-24T02:13:43;99978.47;;;17.06;100.00
51687;BME280;37774;52.192;4.584;2023-07-24T02:16:29;99979.69;;;16.99;100.00
51687;BME280;37774;52.192;4.584;2023-07-24T02:19:15;99941.03;;;16.83;100.00
51687;BME280;37774;52.192;4.584;2023-07-24T02:22:00;99973.31;;;17.04;100.00
51687;BME280;37774;52.192;4.584;2023-07-24T02:24:46;99721.69;;;15.53;100.00
51687;BME280;37774;52.192;4.584;2023-07-24T02:27:32;99963.50;;;17.08;100.00
51687;BME280;37774;52.192;4.584;2023-07-24T02:30:18;99964.44;;;17.07;100.00
51687;BME280;37774;52.192;4.584;2023-07-24T02:33:04;99978.88;;;17.16;100.00
51687;BME280;37774;52.192;4.584;2023-07-24T02:35:51;99954.66;;;17.11;100.00
51687;BME280;37774;52.192;4.584;2023-07-24T02:38:37;99959.13;;;17.08;100.00
51687;BME280;37774;52.192;4.584;2023-07-24T02:41:22;99965.28;;;17.07;100.00
51687;BME280;37774;52.192;4.584;2023-07-24T02:44:08;99865.16;;;16.42;100.00
51687;BME280;37774;52.192;4.584;2023-07-24T02:46:53;99958.09;;;17.11;100.00
51687;BME280;37774;52.192;4.584;2023-07-24T02:49:40;99968.16;;;17.20;100.00
51687;BME280;37774;52.192;4.584;2023-07-24T02:52:25;99951.09;;;17.29;100.00
51687;BME280;37774;52.192;4.584;2023-07-24T02:55:10;99920.06;;;17.20;100.00
51687;BME280;37774;52.192;4.584;2023-07-24T02:57:56;99925.47;;;17.17;100.00
51687;BME280;37774;52.192;4.584;2023-07-24T03:00:41;99943.06;;;17.15;100.00
51687;BME280;37774;52.192;4.584;2023-07-24T03:03:27;99951.56;;;17.20;100.00
51687;BME280;37774;52.192;4.584;2023-07-24T03:06:13;99929.78;;;17.18;100.00
51687;BME280;37774;52.192;4.584;2023-07-24T03:08:59;99905.00;;;17.23;100.00
51687;BME280;37774;52.192;4.584;2023-07-24T03:11:44;99904.31;;;17.20;100.00
51687;BME280;37774;52.192;4.584;2023-07-24T03:14:30;99928.72;;;17.22;100.00
51687;BME280;37774;52.192;4.584;2023-07-24T03:17:15;99898.34;;;16.99;100.00
51687;BME280;37774;52.192;4.584;2023-07-24T03:20:08;99915.94;;;17.14;100.00
51687;BME280;37774;52.192;4.584;2023-07-24T03:22:55;99909.78;;;17.15;100.00
51687;BME280;37774;52.192;4.584;2023-07-24T03:25:41;99914.50;;;16.89;100.00
51687;BME280;37774;52.192;4.584;2023-07-24T03:28:26;99914.09;;;17.16;100.00
51687;BME280;37774;52.192;4.584;2023-07-24T03:31:12;99921.06;;;17.17;100.00
51687;BME280;37774;52.192;4.584;2023-07-24T03:33:57;99910.84;;;17.29;100.00
51687;BME280;37774;52.192;4.584;2023-07-24T03:36:42;99786.25;;;16.48;100.00
51687;BME280;37774;52.192;4.584;2023-07-24T03:39:29;99903.84;;;17.29;100.00
51687;BME280;37774;52.192;4.584;2023-07-24T03:42:24;99902.38;;;17.23;100.00
51687;BME280;37774;52.192;4.584;2023-07-24T03:45:10;99890.72;;;17.29;100.00
51687;BME280;37774;52.192;4.584;2023-07-24T03:47:56;99849.34;;;16.99;100.00
51687;BME280;37774;52.192;4.584;2023-07-24T03:50:42;99888.09;;;17.29;100.00
51687;BME280;37774;52.192;4.584;2023-07-24T03:53:27;99889.06;;;17.27;100.00
51687;BME280;37774;52.192;4.584;2023-07-24T03:56:14;99891.47;;;17.31;100.00
51687;BME280;37774;52.192;4.584;2023-07-24T03:59:00;99891.81;;;17.25;100.00
51687;BME280;37774;52.192;4.584;2023-07-24T04:01:45;99893.09;;;17.16;100.00
51687;BME280;37774;52.192;4.584;2023-07-24T04:04:31;99893.81;;;17.20;100.00
51687;BME280;37774;52.192;4.584;2023-07-24T04:07:16;99883.22;;;17.04;100.00
51687;BME280;37774;52.192;4.584;2023-07-24T04:10:02;99855.22;;;16.68;100.00
51687;BME280;37774;52.192;4.584;2023-07-24T04:12:48;99934.63;;;17.08;100.00
51687;BME280;37774;52.192;4.584;2023-07-24T04:15:34;99939.09;;;17.06;100.00
51687;BME280;37774;52.192;4.584;2023-07-24T04:18:19;99920.41;;;16.75;100.00
51687;BME280;37774;52.192;4.584;2023-07-24T04:21:04;99949.75;;;16.84;100.00
51687;BME280;37774;52.192;4.584;2023-07-24T04:23:50;99984.28;;;16.93;100.00
51687;BME280;37774;52.192;4.584;2023-07-24T04:26:35;99985.91;;;16.96;100.00
51687;BME280;37774;52.192;4.584;2023-07-24T04:29:22;99980.09;;;16.89;100.00
51687;BME280;37774;52.192;4.584;2023-07-24T04:32:09;99995.56;;;16.96;100.00
51687;BME280;37774;52.192;4.584;2023-07-24T04:34:55;99926.53;;;16.57;100.00
51687;BME280;37774;52.192;4.584;2023-07-24T04:37:40;99999.41;;;17.07;100.00
51687;BME280;37774;52.192;4.584;2023-07-24T04:40:26;99835.03;;;16.14;100.00
51687;BME280;37774;52.192;4.584;2023-07-24T04:43:11;99891.03;;;16.49;100.00
51687;BME280;37774;52.192;4.584;2023-07-24T04:45:58;99678.28;;;15.09;100.00
51687;BME280;37774;52.192;4.584;2023-07-24T04:48:43;99984.44;;;16.90;100.00
51687;BME280;37774;52.192;4.584;2023-07-24T04:51:29;99862.44;;;16.06;100.00
51687;BME280;37774;52.192;4.584;2023-07-24T04:54:14;100029.22;;;17.06;100.00
51687;BME280;37774;52.192;4.584;2023-07-24T04:56:59;100026.34;;;17.11;100.00
51687;BME280;37774;52.192;4.584;2023-07-24T04:59:45;100017.25;;;17.18;100.00
51687;BME280;37774;52.192;4.584;2023-07-24T05:02:32;100034.06;;;17.33;100.00
51687;BME280;37774;52.192;4.584;2023-07-24T05:05:17;100036.69;;;17.33;100.00
51687;BME280;37774;52.192;4.584;2023-07-24T05:08:03;100058.94;;;17.44;100.00
51687;BME280;37774;52.192;4.584;2023-07-24T05:10:53;100041.63;;;17.40;100.00
51687;BME280;37774;52.192;4.584;2023-07-24T05:13:39;100065.53;;;17.52;100.00
51687;BME280;37774;52.192;4.584;2023-07-24T05:16:24;100046.44;;;17.12;100.00
51687;BME280;37774;52.192;4.584;2023-07-24T05:19:11;100006.13;;;16.94;100.00
51687;BME280;37774;52.192;4.584;2023-07-24T05:21:57;100098.50;;;17.58;100.00
51687;BME280;37774;52.192;4.584;2023-07-24T05:24:43;100103.59;;;17.44;100.00
51687;BME280;37774;52.192;4.584;2023-07-24T05:27:28;100150.72;;;17.47;100.00
51687;BME280;37774;52.192;4.584;2023-07-24T05:30:13;100167.25;;;17.49;100.00
51687;BME280;37774;52.192;4.584;2023-07-24T05:32:59;100222.84;;;17.40;100.00
51687;BME280;37774;52.192;4.584;2023-07-24T05:35:46;100169.81;;;17.31;100.00
51687;BME280;37774;52.192;4.584;2023-07-24T05:38:31;100220.28;;;17.57;100.00
51687;BME280;37774;52.192;4.584;2023-07-24T05:41:17;100146.31;;;17.09;100.00
51687;BME280;37774;52.192;4.584;2023-07-24T05:44:02;100132.63;;;17.21;100.00
51687;BME280;37774;52.192;4.584;2023-07-24T05:46:47;100174.53;;;17.61;100.00
51687;BME280;37774;52.192;4.584;2023-07-24T05:49:33;100194.38;;;17.86;100.00
51687;BME280;37774;52.192;4.584;2023-07-24T05:52:20;100163.00;;;17.83;100.00
51687;BME280;37774;52.192;4.584;2023-07-24T05:55:06;99896.81;;;16.19;100.00
51687;BME280;37774;52.192;4.584;2023-07-24T05:57:52;100128.91;;;17.81;100.00
51687;BME280;37774;52.192;4.584;2023-07-24T06:00:37;100135.25;;;17.95;100.00
51687;BME280;37774;52.192;4.584;2023-07-24T06:03:23;100117.31;;;18.05;100.00
51687;BME280;37774;52.192;4.584;2023-07-24T06:06:08;100073.53;;;18.04;100.00
51687;BME280;37774;52.192;4.584;2023-07-24T06:08:55;100017.00;;;17.77;100.00
51687;BME280;37774;52.192;4.584;2023-07-24T06:11:41;100029.03;;;17.99;100.00
51687;BME280;37774;52.192;4.584;2023-07-24T06:14:26;100024.09;;;18.10;100.00
51687;BME280;37774;52.192;4.584;2023-07-24T06:17:12;100013.69;;;18.09;100.00
51687;BME280;37774;52.192;4.584;2023-07-24T06:19:57;99961.97;;;17.74;100.00
51687;BME280;37774;52.192;4.584;2023-07-24T06:22:42;99931.66;;;17.85;100.00
51687;BME280;37774;52.192;4.584;2023-07-24T06:25:29;99977.66;;;18.27;100.00
51687;BME280;37774;52.192;4.584;2023-07-24T06:28:15;99951.97;;;18.16;100.00
51687;BME280;37774;52.192;4.584;2023-07-24T06:31:00;99882.19;;;17.93;100.00
51687;BME280;37774;52.192;4.584;2023-07-24T06:33:46;99919.66;;;18.14;100.00
51687;BME280;37774;52.192;4.584;2023-07-24T06:36:31;99837.41;;;17.78;100.00
51687;BME280;37774;52.192;4.584;2023-07-24T06:39:17;99922.59;;;18.24;100.00
51687;BME280;37774;52.192;4.584;2023-07-24T06:42:05;99886.19;;;18.00;100.00
51687;BME280;37774;52.192;4.584;2023-07-24T06:44:50;99906.84;;;18.24;100.00
51687;BME280;37774;52.192;4.584;2023-07-24T06:47:35;99904.63;;;18.48;100.00
51687;BME280;37774;52.192;4.584;2023-07-24T06:50:21;99859.06;;;18.48;100.00
51687;BME280;37774;52.192;4.584;2023-07-24T06:53:06;99819.75;;;18.61;100.00
51687;BME280;37774;52.192;4.584;2023-07-24T06:55:51;99775.81;;;18.47;100.00
51687;BME280;37774;52.192;4.584;2023-07-24T06:58:38;99749.22;;;18.37;100.00
51687;BME280;37774;52.192;4.584;2023-07-24T07:01:24;99875.34;;;19.17;100.00
51687;BME280;37774;52.192;4.584;2023-07-24T07:04:09;99782.53;;;18.83;100.00
51687;BME280;37774;52.192;4.584;2023-07-24T07:06:55;99727.97;;;18.56;100.00
51687;BME280;37774;52.192;4.584;2023-07-24T07:09:41;99509.72;;;17.50;100.00
51687;BME280;37774;52.192;4.584;2023-07-24T07:12:26;99700.25;;;18.65;100.00
51687;BME280;37774;52.192;4.584;2023-07-24T07:15:13;99815.72;;;19.45;100.00
51687;BME280;37774;52.192;4.584;2023-07-24T07:17:58;99720.19;;;18.83;100.00
51687;BME280;37774;52.192;4.584;2023-07-24T07:20:45;99809.88;;;19.83;100.00
51687;BME280;37774;52.192;4.584;2023-07-24T07:23:30;99767.78;;;19.82;100.00
51687;BME280;37774;52.192;4.584;2023-07-24T07:26:16;99804.66;;;20.11;100.00
51687;BME280;37774;52.192;4.584;2023-07-24T07:29:01;99772.63;;;19.61;100.00
51687;BME280;37774;52.192;4.584;2023-07-24T07:31:48;99736.50;;;19.48;100.00
51687;BME280;37774;52.192;4.584;2023-07-24T07:34:34;99720.78;;;20.03;100.00
51687;BME280;37774;52.192;4.584;2023-07-24T07:37:20;99719.59;;;20.22;100.00
51687;BME280;37774;52.192;4.584;2023-07-24T07:40:06;99693.06;;;20.10;100.00
51687;BME280;37774;52.192;4.584;2023-07-24T07:42:52;99694.03;;;20.09;100.00
51687;BME280;37774;52.192;4.584;2023-07-24T07:45:37;99783.50;;;20.53;100.00
51687;BME280;37774;52.192;4.584;2023-07-24T07:48:24;99791.97;;;21.11;100.00
51687;BME280;37774;52.192;4.584;2023-07-24T07:51:10;99788.56;;;21.48;100.00
51687;BME280;37774;52.192;4.584;2023-07-24T07:53:56;99710.16;;;20.71;100.00
51687;BME280;37774;52.192;4.584;2023-07-24T07:56:41;99823.03;;;21.08;100.00
51687;BME280;37774;52.192;4.584;2023-07-24T07:59:27;99720.47;;;20.35;100.00
51687;BME280;37774;52.192;4.584;2023-07-24T08:02:12;99792.94;;;20.70;100.00
51687;BME280;37774;52.192;4.584;2023-07-24T08:05:00;99855.56;;;20.95;100.00
51687;BME280;37774;52.192;4.584;2023-07-24T08:07:45;99834.09;;;20.87;100.00
51687;BME280;37774;52.192;4.584;2023-07-24T08:10:30;99855.91;;;20.49;100.00
51687;BME280;37774;52.192;4.584;2023-07-24T08:13:15;99882.78;;;20.41;100.00
51687;BME280;37774;52.192;4.584;2023-07-24T08:16:01;99798.97;;;19.75;100.00
51687;BME280;37774;52.192;4.584;2023-07-24T08:18:47;99855.84;;;19.94;100.00
51687;BME280;37774;52.192;4.584;2023-07-24T08:21:34;99921.09;;;20.19;100.00
51687;BME280;37774;52.192;4.584;2023-07-24T08:24:21;99601.06;;;18.22;100.00
51687;BME280;37774;52.192;4.584;2023-07-24T08:27:07;99893.50;;;19.67;100.00
51687;BME280;37774;52.192;4.584;2023-07-24T08:29:52;99895.19;;;20.11;100.00
51687;BME280;37774;52.192;4.584;2023-07-24T08:32:38;99952.38;;;21.22;100.00
51687;BME280;37774;52.192;4.584;2023-07-24T08:35:24;99931.63;;;21.03;100.00
51687;BME280;37774;52.192;4.584;2023-07-24T08:38:11;99988.47;;;21.09;100.00
51687;BME280;37774;52.192;4.584;2023-07-24T08:41:03;99898.88;;;20.51;100.00
51687;BME280;37774;52.192;4.584;2023-07-24T08:43:49;99978.03;;;20.51;100.00
51687;BME280;37774;52.192;4.584;2023-07-24T08:46:36;99936.25;;;20.16;100.00
51687;BME280;37774;52.192;4.584;2023-07-24T08:49:23;99923.66;;;19.92;100.00
51687;BME280;37774;52.192;4.584;2023-07-24T08:52:09;99931.53;;;20.06;100.00
51687;BME280;37774;52.192;4.584;2023-07-24T08:54:57;100000.59;;;20.27;100.00
51687;BME280;37774;52.192;4.584;2023-07-24T08:57:44;99924.75;;;19.73;100.00
51687;BME280;37774;52.192;4.584;2023-07-24T09:00:30;99998.59;;;20.02;100.00
51687;BME280;37774;52.192;4.584;2023-07-24T09:03:16;100010.59;;;20.22;100.00
51687;BME280;37774;52.192;4.584;2023-07-24T09:06:02;100062.22;;;20.41;100.00
51687;BME280;37774;52.192;4.584;2023-07-24T09:08:48;100062.41;;;20.52;100.00
51687;BME280;37774;52.192;4.584;2023-07-24T09:11:45;100066.91;;;20.65;100.00
51687;BME280;37774;52.192;4.584;2023-07-24T09:14:30;100094.72;;;20.56;100.00
51687;BME280;37774;52.192;4.584;2023-07-24T09:17:16;100000.28;;;20.03;100.00
51687;BME280;37774;52.192;4.584;2023-07-24T09:20:02;100101.50;;;21.04;100.00
51687;BME280;37774;52.192;4.584;2023-07-24T09:22:49;100116.22;;;21.08;100.00
51687;BME280;37774;52.192;4.584;2023-07-24T09:25:35;100042.72;;;21.00;100.00
51687;BME280;37774;52.192;4.584;2023-07-24T09:28:24;100139.84;;;21.93;100.00
51687;BME280;37774;52.192;4.584;2023-07-24T09:31:10;100072.41;;;21.73;100.00
51687;BME280;37774;52.192;4.584;2023-07-24T09:33:56;100132.59;;;21.69;100.00
51687;BME280;37774;52.192;4.584;2023-07-24T09:36:41;100110.50;;;21.28;100.00
51687;BME280;37774;52.192;4.584;2023-07-24T09:39:27;100144.59;;;21.46;100.00
51687;BME280;37774;52.192;4.584;2023-07-24T09:42:12;100141.88;;;22.02;100.00
51687;BME280;37774;52.192;4.584;2023-07-24T09:44:59;100177.00;;;22.04;100.00
51687;BME280;37774;52.192;4.584;2023-07-24T09:47:45;100161.56;;;22.11;100.00
51687;BME280;37774;52.192;4.584;2023-07-24T09:50:32;100147.03;;;21.64;100.00
51687;BME280;37774;52.192;4.584;2023-07-24T09:53:21;100111.75;;;21.23;100.00
51687;BME280;37774;52.192;4.584;2023-07-24T09:56:08;100119.03;;;21.05;100.00
51687;BME280;37774;52.192;4.584;2023-07-24T09:58:53;100157.50;;;21.23;100.00
51687;BME280;37774;52.192;4.584;2023-07-24T10:01:41;99843.34;;;19.09;100.00
51687;BME280;37774;52.192;4.584;2023-07-24T10:04:28;100088.28;;;20.60;100.00
51687;BME280;37774;52.192;4.584;2023-07-24T10:07:13;100127.44;;;20.97;100.00
51687;BME280;37774;52.192;4.584;2023-07-24T10:10:00;100125.84;;;21.09;100.00
51687;BME280;37774;52.192;4.584;2023-07-24T10:12:47;100050.06;;;20.82;100.00
51687;BME280;37774;52.192;4.584;2023-07-24T10:15:33;100143.47;;;21.23;100.00
51687;BME280;37774;52.192;4.584;2023-07-24T10:18:27;100118.19;;;21.46;100.00
51687;BME280;37774;52.192;4.584;2023-07-24T10:21:14;100077.97;;;21.28;100.00
51687;BME280;37774;52.192;4.584;2023-07-24T10:23:59;100114.72;;;21.58;100.00
51687;BME280;37774;52.192;4.584;2023-07-24T10:26:45;100118.81;;;21.64;100.00
51687;BME280;37774;52.192;4.584;2023-07-24T10:29:34;100143.09;;;21.84;100.00
51687;BME280;37774;52.192;4.584;2023-07-24T10:32:20;100131.69;;;21.96;100.00
51687;BME280;37774;52.192;4.584;2023-07-24T10:35:08;100092.81;;;21.71;100.00
51687;BME280;37774;52.192;4.584;2023-07-24T10:37:59;100167.25;;;22.71;100.00
51687;BME280;37774;52.192;4.584;2023-07-24T10:40:47;100184.09;;;22.57;100.00
51687;BME280;37774;52.192;4.584;2023-07-24T10:43:43;100133.13;;;22.80;100.00
51687;BME280;37774;52.192;4.584;2023-07-24T10:46:35;100190.34;;;22.69;100.00
51687;BME280;37774;52.192;4.584;2023-07-24T10:49:22;100183.59;;;22.52;100.00
51687;BME280;37774;52.192;4.584;2023-07-24T10:52:10;100193.16;;;22.40;100.00
51687;BME280;37774;52.192;4.584;2023-07-24T10:54:55;100186.66;;;22.85;100.00
51687;BME280;37774;52.192;4.584;2023-07-24T10:57:41;100196.06;;;22.76;100.00
51687;BME280;37774;52.192;4.584;2023-07-24T11:00:26;100160.66;;;22.38;100.00
51687;BME280;37774;52.192;4.584;2023-07-24T11:03:14;100102.31;;;22.27;100.00
51687;BME280;37774;52.192;4.584;2023-07-24T11:05:59;100069.31;;;22.58;100.00
51687;BME280;37774;52.192;4.584;2023-07-24T11:08:52;100199.97;;;23.35;100.00
51687;BME280;37774;52.192;4.584;2023-07-24T11:11:40;100204.13;;;23.00;100.00
51687;BME280;37774;52.192;4.584;2023-07-24T11:14:25;100137.19;;;22.46;100.00
51687;BME280;37774;52.192;4.584;2023-07-24T11:17:11;100211.94;;;22.63;100.00
51687;BME280;37774;52.192;4.584;2023-07-24T11:20:05;100184.31;;;22.67;100.00
51687;BME280;37774;52.192;4.584;2023-07-24T11:22:50;100230.91;;;22.57;100.00
51687;BME280;37774;52.192;4.584;2023-07-24T11:25:38;100227.31;;;22.71;100.00
51687;BME280;37774;52.192;4.584;2023-07-24T11:28:24;100218.84;;;22.91;100.00
51687;BME280;37774;52.192;4.584;2023-07-24T11:31:09;100189.19;;;22.73;100.00
51687;BME280;37774;52.192;4.584;2023-07-24T11:33:55;100195.09;;;22.64;100.00
51687;BME280;37774;52.192;4.584;2023-07-24T11:36:41;100169.47;;;22.77;100.00
51687;BME280;37774;52.192;4.584;2023-07-24T11:39:27;100214.38;;;23.31;100.00
51687;BME280;37774;52.192;4.584;2023-07-24T11:42:13;100166.69;;;22.40;100.00
51687;BME280;37774;52.192;4.584;2023-07-24T11:45:01;100264.09;;;22.35;100.00
51687;BME280;37774;52.192;4.584;2023-07-24T11:47:48;100246.16;;;22.53;100.00
51687;BME280;37774;52.192;4.584;2023-07-24T11:50:42;100256.66;;;22.68;100.00
51687;BME280;37774;52.192;4.584;2023-07-24T11:53:29;100253.94;;;22.42;100.00
51687;BME280;37774;52.192;4.584;2023-07-24T11:56:16;100252.19;;;22.55;100.00
51687;BME280;37774;52.192;4.584;2023-07-24T11:59:10;100263.78;;;22.40;100.00
51687;BME280;37774;52.192;4.584;2023-07-24T12:01:56;100258.44;;;22.54;100.00
51687;BME280;37774;52.192;4.584;2023-07-24T12:04:41;100260.97;;;22.56;100.00
51687;BME280;37774;52.192;4.584;2023-07-24T12:07:32;100275.00;;;22.43;100.00
51687;BME280;37774;52.192;4.584;2023-07-24T12:10:25;100267.06;;;22.97;100.00
51687;BME280;37774;52.192;4.584;2023-07-24T12:13:12;100259.00;;;22.85;100.00
51687;BME280;37774;52.192;4.584;2023-07-24T12:15:59;100269.09;;;22.93;100.00
51687;BME280;37774;52.192;4.584;2023-07-24T12:18:44;100253.16;;;22.67;100.00
51687;BME280;37774;52.192;4.584;2023-07-24T12:21:30;100178.69;;;21.93;100.00
51687;BME280;37774;52.192;4.584;2023-07-24T12:24:15;100246.91;;;22.68;100.00
51687;BME280;37774;52.192;4.584;2023-07-24T12:27:01;100201.38;;;22.50;100.00
51687;BME280;37774;52.192;4.584;2023-07-24T12:29:46;100243.19;;;22.58;100.00
51687;BME280;37774;52.192;4.584;2023-07-24T12:32:33;100162.88;;;22.31;100.00
51687;BME280;37774;52.192;4.584;2023-07-24T12:35:18;100272.69;;;23.31;100.00
51687;BME280;37774;52.192;4.584;2023-07-24T12:38:04;100270.97;;;23.43;100.00
51687;BME280;37774;52.192;4.584;2023-07-24T12:40:49;100267.75;;;23.63;100.00
51687;BME280;37774;52.192;4.584;2023-07-24T12:43:35;100198.47;;;23.18;100.00
51687;BME280;37774;52.192;4.584;2023-07-24T12:46:20;100272.59;;;23.70;100.00
51687;BME280;37774;52.192;4.584;2023-07-24T12:49:07;100287.38;;;22.70;100.00
51687;BME280;37774;52.192;4.584;2023-07-24T12:51:53;100291.22;;;22.79;100.00
51687;BME280;37774;52.192;4.584;2023-07-24T12:54:38;100278.03;;;22.52;100.00
51687;BME280;37774;52.192;4.584;2023-07-24T12:57:23;100248.47;;;22.17;100.00
51687;BME280;37774;52.192;4.584;2023-07-24T13:00:10;100286.69;;;22.26;100.00
51687;BME280;37774;52.192;4.584;2023-07-24T13:02:56;100280.91;;;22.34;100.00
51687;BME280;37774;52.192;4.584;2023-07-24T13:05:43;100277.78;;;22.14;100.00
51687;BME280;37774;52.192;4.584;2023-07-24T13:08:28;100305.00;;;22.16;100.00
51687;BME280;37774;52.192;4.584;2023-07-24T13:11:14;100316.78;;;21.25;100.00
51687;BME280;37774;52.192;4.584;2023-07-24T13:13:59;100235.44;;;21.01;100.00
51687;BME280;37774;52.192;4.584;2023-07-24T13:16:44;100258.56;;;21.27;100.00
51687;BME280;37774;52.192;4.584;2023-07-24T13:19:30;100299.78;;;21.73;100.00
51687;BME280;37774;52.192;4.584;2023-07-24T13:22:17;100303.75;;;21.95;100.00
51687;BME280;37774;52.192;4.584;2023-07-24T13:25:03;100298.47;;;21.80;100.00
51687;BME280;37774;52.192;4.584;2023-07-24T13:27:48;100302.63;;;21.55;100.00
51687;BME280;37774;52.192;4.584;2023-07-24T13:30:34;100231.91;;;20.72;100.00
51687;BME280;37774;52.192;4.584;2023-07-24T13:33:20;100266.56;;;20.82;100.00
51687;BME280;37774;52.192;4.584;2023-07-24T13:36:06;100221.31;;;20.88;100.00
51687;BME280;37774;52.192;4.584;2023-07-24T13:38:52;99987.59;;;19.34;100.00
51687;BME280;37774;52.192;4.584;2023-07-24T13:41:38;100274.00;;;21.04;100.00
51687;BME280;37774;52.192;4.584;2023-07-24T13:44:23;100205.44;;;20.12;100.00
51687;BME280;37774;52.192;4.584;2023-07-24T13:47:09;100290.94;;;20.55;100.00
51687;BME280;37774;52.192;4.584;2023-07-24T13:49:54;100287.91;;;20.47;100.00
51687;BME280;37774;52.192;4.584;2023-07-24T13:52:40;100289.91;;;20.27;100.00
51687;BME280;37774;52.192;4.584;2023-07-24T13:55:27;100176.25;;;19.53;100.00
51687;BME280;37774;52.192;4.584;2023-07-24T13:58:12;100056.72;;;18.24;100.00
51687;BME280;37774;52.192;4.584;2023-07-24T14:00:57;100280.31;;;19.62;100.00
51687;BME280;37774;52.192;4.584;2023-07-24T14:03:43;100248.03;;;19.24;100.00
51687;BME280;37774;52.192;4.584;2023-07-24T14:06:28;100159.72;;;19.01;100.00
51687;BME280;37774;52.192;4.584;2023-07-24T14:09:14;100222.56;;;19.41;100.00
51687;BME280;37774;52.192;4.584;2023-07-24T14:12:00;100089.50;;;18.17;100.00
51687;BME280;37774;52.192;4.584;2023-07-24T14:14:46;100208.03;;;18.82;100.00
51687;BME280;37774;52.192;4.584;2023-07-24T14:17:31;100117.81;;;18.29;100.00
51687;BME280;37774;52.192;4.584;2023-07-24T14:20:17;100200.44;;;18.94;100.00